Em Athens — V7US8 — position and weather

sailwx.info

Track history (hours):
 
Tides and Currents Weather Stations Pressure Air Temp Water Temp Dewpoint Dewpoint Depression Visibility Wind Speed Wind Dir Waves Ship Positions

Em Athens

Last reported at 2015-May-22 23:32 UTC. Time now 2015-May-22 23:47 UTC.
Position N 39°13' E 009°04'.

Length 207 m; draft 8.9 m.

Type: Cargo ship. MMSI: 538004019.

Date/timePositionNaut miles runAvg speedWind from/ knotsBaromVisibWave heightAir tempDewpointWater temp
2015-May-22 23:32N 39°13' E 009°04'0 0.0
2015-May-22 22:32N 39°13' E 009°04'0 0.0
2015-May-22 21:32N 39°13' E 009°04'0 0.0
2015-May-22 20:32N 39°13' E 009°04'0 0.0
2015-May-22 19:32N 39°13' E 009°04'0 0.0
2015-May-22 18:32N 39°13' E 009°04'0 0.0
2015-May-22 17:32N 39°13' E 009°04'0 0.0
2015-May-22 16:32N 39°13' E 009°04'0 0.0
2015-May-22 15:32N 39°13' E 009°04'0 0.0
2015-May-22 14:32N 39°13' E 009°04'0 0.0
2015-May-22 13:32N 39°13' E 009°04'4 4.1
2015-May-22 12:33N 39°09' E 009°07'5 5.3
2015-May-22 11:34N 39°06' E 009°12'1514.6
2015-May-22 10:34N 38°60' E 009°29'1615.2
2015-May-22 09:29N 39°04' E 009°49'19115.8
2015-May-21 21:22N 40°16' E 013°39'1215.1
2015-May-21 20:34N 40°21' E 013°54'1615.2
2015-May-21 19:32N 40°26' E 014°13'1515.5
2015-May-21 18:32N 40°33' E 014°32'6 0.2
2015-May-20 18:30N 40°36' E 014°39'1414.5
2015-May-20 17:33N 40°34' E 014°21'1312.7
2015-May-20 16:33N 40°46' E 014°17'4 4.0
2015-May-20 15:26N 40°50' E 014°17'0 0.0
2015-May-20 14:32N 40°50' E 014°17'0 0.0
2015-May-20 13:31N 40°50' E 014°17'0 0.0
2015-May-20 12:31N 40°50' E 014°17'0 0.0
2015-May-20 11:28N 40°50' E 014°17'0 0.0
2015-May-20 10:28N 40°50' E 014°17'0 0.0
2015-May-20 08:31N 40°50' E 014°17'0 0.0
2015-May-20 07:19N 40°50' E 014°17'0 0.0
2015-May-20 06:31N 40°50' E 014°17'2 2.0
2015-May-20 05:23N 40°48' E 014°17'5 5.9
2015-May-20 04:33N 40°44' E 014°13'1615.8
2015-May-20 03:33N 40°38' E 013°54'1616.4
2015-May-20 02:33N 40°42' E 013°33'1716.6
2015-May-20 01:33N 40°46' E 013°11'1716.5
2015-May-20 00:32N 40°51' E 012°50'14017.3
2015-May-19 16:27N 42°24' E 010°32'3216.7
2015-May-19 14:33N 42°47' E 010°02'1817.2
2015-May-19 13:32N 43°05' E 010°06'1717.1
2015-May-19 12:33N 43°21' E 010°10'1312.6
2015-May-19 11:33N 43°32' E 010°17'2 2.3
2015-May-19 10:31N 43°35' E 010°18'0 0.0
2015-May-19 09:31N 43°35' E 010°18'0 0.0
2015-May-19 08:31N 43°35' E 010°18'0 0.0
2015-May-19 07:31N 43°35' E 010°18'0 0.0
2015-May-19 06:31N 43°35' E 010°18'0 0.0
2015-May-19 05:31N 43°35' E 010°18'0 0.0
2015-May-19 04:28N 43°35' E 010°18'3 3.3
2015-May-19 03:34N 43°32' E 010°16'6 5.5
2015-May-19 02:33N 43°28' E 010°11'2 1.8
2015-May-19 01:33N 43°29' E 010°08'1111.1
2015-May-19 00:33N 43°34' E 009°54'1716.5
2015-May-18 23:33N 43°46' E 009°38'1716.7
2015-May-18 22:33N 43°57' E 009°21'1616.3
2015-May-18 21:33N 44°08' E 009°05'1616.4
2015-May-18 20:33N 44°19' E 008°48'6 5.9
2015-May-18 19:33N 44°25' E 008°47'0 0.0
2015-May-18 18:33N 44°25' E 008°47'0 0.0
2015-May-18 17:33N 44°25' E 008°47'0 0.0
2015-May-18 16:33N 44°25' E 008°47'0 0.0
2015-May-18 15:33N 44°25' E 008°47'0 0.0
2015-May-18 14:33N 44°25' E 008°47'0 0.0
2015-May-18 13:33N 44°25' E 008°47'0 0.0
2015-May-18 12:30N 44°25' E 008°47'0 0.0
2015-May-18 11:33N 44°25' E 008°47'0 0.0
2015-May-18 10:33N 44°25' E 008°47'0 0.0
2015-May-18 09:30N 44°25' E 008°47'0 0.0
2015-May-18 08:33N 44°25' E 008°47'0 0.0
2015-May-18 07:30N 44°25' E 008°47'0 0.0
2015-May-18 06:33N 44°25' E 008°47'0 0.0
2015-May-18 05:33N 44°25' E 008°47'0 0.0
2015-May-18 04:33N 44°25' E 008°47'0 0.0
2015-May-18 03:33N 44°25' E 008°47'2 2.3
2015-May-18 02:33N 44°23' E 008°46'0 0.0
2015-May-18 01:33N 44°23' E 008°45'0 0.0
2015-May-18 00:33N 44°23' E 008°45'0 0.0
2015-May-17 23:30N 44°23' E 008°45'0 0.0
2015-May-17 22:30N 44°23' E 008°46'0 0.0
2015-May-17 21:30N 44°23' E 008°46'0 0.0
2015-May-17 20:33N 44°23' E 008°46'0 0.0
2015-May-17 19:33N 44°23' E 008°46'0 0.0
2015-May-17 18:33N 44°23' E 008°46'0 0.0
2015-May-17 17:30N 44°23' E 008°46'0 0.0
2015-May-17 16:30N 44°23' E 008°46'0 0.0
2015-May-17 15:27N 44°23' E 008°46'0 0.0
2015-May-17 14:34N 44°23' E 008°46'0 0.0
2015-May-17 13:33N 44°23' E 008°46'0 0.0
2015-May-17 12:33N 44°23' E 008°46'0 0.0
2015-May-17 11:33N 44°23' E 008°46'0 0.0
2015-May-17 10:33N 44°23' E 008°46'0 0.4
2015-May-17 09:33N 44°23' E 008°46'8 7.7
2015-May-17 08:33N 44°15' E 008°49'1716.8
2015-May-17 07:33N 44°02' E 009°03'1716.9
2015-May-17 06:34N 43°47' E 009°14'1616.4
2015-May-17 05:34N 43°32' E 009°23'1616.3
2015-May-17 04:33N 43°17' E 009°32'1616.1
2015-May-17 03:33N 43°01' E 009°38'1616.0
2015-May-17 02:33N 42°46' E 009°43'22815.8
2015-May-16 12:09N 38°58' E 009°31'1017.2
2015-May-16 11:33N 39°03' E 009°19'1414.0
2015-May-16 10:33N 39°12' E 009°05'1 1.3
2015-May-16 09:31N 39°13' E 009°04'0 0.0
2015-May-16 08:31N 39°13' E 009°04'0 0.0
2015-May-16 07:31N 39°13' E 009°04'0 0.0
2015-May-16 06:31N 39°13' E 009°04'0 0.0
2015-May-16 05:31N 39°13' E 009°04'0 0.0
2015-May-16 04:31N 39°13' E 009°04'0 0.0
2015-May-16 03:31N 39°13' E 009°04'0 0.0
2015-May-16 02:31N 39°13' E 009°04'0 0.0
2015-May-16 01:31N 39°13' E 009°04'0 0.0
2015-May-16 00:31N 39°13' E 009°04'0 0.0
2015-May-15 23:31N 39°13' E 009°04'0 0.0
2015-May-15 22:31N 39°13' E 009°04'0 0.0
2015-May-15 21:31N 39°13' E 009°04'0 0.0
2015-May-15 20:31N 39°13' E 009°04'0 0.0
2015-May-15 19:31N 39°13' E 009°04'0 0.5
2015-May-15 18:34N 39°13' E 009°04'8 8.0
2015-May-15 17:33N 39°06' E 009°10'1514.7
2015-May-15 16:33N 38°59' E 009°26'5015.6
2015-May-15 13:19N 38°32' E 010°20'1216.1
2015-May-15 12:33N 38°25' E 010°33'1616.3
2015-May-15 11:33N 38°16' E 010°51'1717.1
2015-May-15 10:33N 38°07' E 011°09'1717.4
2015-May-15 09:33N 37°58' E 011°28'1818.2
2015-May-15 08:33N 37°48' E 011°47'1818.2
2015-May-15 07:33N 37°38' E 012°07'1717.4
2015-May-15 06:34N 37°29' E 012°25'5317.6
2015-May-15 03:33N 37°00' E 013°21'1717.2
2015-May-15 02:34N 36°51' E 013°39'1717.2
2015-May-15 01:34N 36°42' E 013°57'1717.0
2015-May-15 00:34N 36°33' E 014°15'1716.9
2015-May-14 23:34N 36°27' E 014°35'1717.0
2015-May-14 22:34N 36°24' E 014°55'1717.1
2015-May-14 21:33N 36°24' E 015°17'24516.4
2015-May-14 06:33N 36°21' E 020°22'1716.8
2015-May-14 05:34N 36°20' E 020°42'17714.4
2015-May-13 17:15N 37°30' E 024°06'1617.2
2015-May-13 16:19N 37°43' E 024°17'1317.5
2015-May-13 15:33N 37°52' E 024°31'  
Track history (hours):
 
Tides and Currents Weather Stations Pressure Air Temp Water Temp Dewpoint Dewpoint Depression Visibility Wind Speed Wind Dir Waves Ship Positions

Em Athens

Last reported at 2015-May-22 23:32 UTC. Time now 2015-May-22 23:47 UTC.
Position N 39°13' E 009°04'.

Length 207 m; draft 8.9 m.

Type: Cargo ship. MMSI: 538004019.

Date/timePositionNaut miles runAvg speedWind from/ knotsBaromVisibWave heightAir tempDewpointWater temp
2015-May-22 23:32N 39°13' E 009°04'0 0.0
2015-May-22 22:32N 39°13' E 009°04'0 0.0
2015-May-22 21:32N 39°13' E 009°04'0 0.0
2015-May-22 20:32N 39°13' E 009°04'0 0.0
2015-May-22 19:32N 39°13' E 009°04'0 0.0
2015-May-22 18:32N 39°13' E 009°04'0 0.0
2015-May-22 17:32N 39°13' E 009°04'0 0.0
2015-May-22 16:32N 39°13' E 009°04'0 0.0
2015-May-22 15:32N 39°13' E 009°04'0 0.0
2015-May-22 14:32N 39°13' E 009°04'0 0.0
2015-May-22 13:32N 39°13' E 009°04'4 4.1
2015-May-22 12:33N 39°09' E 009°07'5 5.3
2015-May-22 11:34N 39°06' E 009°12'1514.6
2015-May-22 10:34N 38°60' E 009°29'1615.2
2015-May-22 09:29N 39°04' E 009°49'19115.8
2015-May-21 21:22N 40°16' E 013°39'1215.1
2015-May-21 20:34N 40°21' E 013°54'1615.2
2015-May-21 19:32N 40°26' E 014°13'1515.5
2015-May-21 18:32N 40°33' E 014°32'6 0.2
2015-May-20 18:30N 40°36' E 014°39'1414.5
2015-May-20 17:33N 40°34' E 014°21'1312.7
2015-May-20 16:33N 40°46' E 014°17'4 4.0
2015-May-20 15:26N 40°50' E 014°17'0 0.0
2015-May-20 14:32N 40°50' E 014°17'0 0.0
2015-May-20 13:31N 40°50' E 014°17'0 0.0
2015-May-20 12:31N 40°50' E 014°17'0 0.0
2015-May-20 11:28N 40°50' E 014°17'0 0.0
2015-May-20 10:28N 40°50' E 014°17'0 0.0
2015-May-20 08:31N 40°50' E 014°17'0 0.0
2015-May-20 07:19N 40°50' E 014°17'0 0.0
2015-May-20 06:31N 40°50' E 014°17'2 2.0
2015-May-20 05:23N 40°48' E 014°17'5 5.9
2015-May-20 04:33N 40°44' E 014°13'1615.8
2015-May-20 03:33N 40°38' E 013°54'1616.4
2015-May-20 02:33N 40°42' E 013°33'1716.6
2015-May-20 01:33N 40°46' E 013°11'1716.5
2015-May-20 00:32N 40°51' E 012°50'14017.3
2015-May-19 16:27N 42°24' E 010°32'3216.7
2015-May-19 14:33N 42°47' E 010°02'1817.2
2015-May-19 13:32N 43°05' E 010°06'1717.1
2015-May-19 12:33N 43°21' E 010°10'1312.6
2015-May-19 11:33N 43°32' E 010°17'2 2.3
2015-May-19 10:31N 43°35' E 010°18'0 0.0
2015-May-19 09:31N 43°35' E 010°18'0 0.0
2015-May-19 08:31N 43°35' E 010°18'0 0.0
2015-May-19 07:31N 43°35' E 010°18'0 0.0
2015-May-19 06:31N 43°35' E 010°18'0 0.0
2015-May-19 05:31N 43°35' E 010°18'0 0.0
2015-May-19 04:28N 43°35' E 010°18'3 3.3
2015-May-19 03:34N 43°32' E 010°16'6 5.5
2015-May-19 02:33N 43°28' E 010°11'2 1.8
2015-May-19 01:33N 43°29' E 010°08'1111.1
2015-May-19 00:33N 43°34' E 009°54'1716.5
2015-May-18 23:33N 43°46' E 009°38'1716.7
2015-May-18 22:33N 43°57' E 009°21'1616.3
2015-May-18 21:33N 44°08' E 009°05'1616.4
2015-May-18 20:33N 44°19' E 008°48'6 5.9
2015-May-18 19:33N 44°25' E 008°47'0 0.0
2015-May-18 18:33N 44°25' E 008°47'0 0.0
2015-May-18 17:33N 44°25' E 008°47'0 0.0
2015-May-18 16:33N 44°25' E 008°47'0 0.0
2015-May-18 15:33N 44°25' E 008°47'0 0.0
2015-May-18 14:33N 44°25' E 008°47'0 0.0
2015-May-18 13:33N 44°25' E 008°47'0 0.0
2015-May-18 12:30N 44°25' E 008°47'0 0.0
2015-May-18 11:33N 44°25' E 008°47'0 0.0
2015-May-18 10:33N 44°25' E 008°47'0 0.0
2015-May-18 09:30N 44°25' E 008°47'0 0.0
2015-May-18 08:33N 44°25' E 008°47'0 0.0
2015-May-18 07:30N 44°25' E 008°47'0 0.0
2015-May-18 06:33N 44°25' E 008°47'0 0.0
2015-May-18 05:33N 44°25' E 008°47'0 0.0
2015-May-18 04:33N 44°25' E 008°47'0 0.0
2015-May-18 03:33N 44°25' E 008°47'2 2.3
2015-May-18 02:33N 44°23' E 008°46'0 0.0
2015-May-18 01:33N 44°23' E 008°45'0 0.0
2015-May-18 00:33N 44°23' E 008°45'0 0.0
2015-May-17 23:30N 44°23' E 008°45'0 0.0
2015-May-17 22:30N 44°23' E 008°46'0 0.0
2015-May-17 21:30N 44°23' E 008°46'0 0.0
2015-May-17 20:33N 44°23' E 008°46'0 0.0
2015-May-17 19:33N 44°23' E 008°46'0 0.0
2015-May-17 18:33N 44°23' E 008°46'0 0.0
2015-May-17 17:30N 44°23' E 008°46'0 0.0
2015-May-17 16:30N 44°23' E 008°46'0 0.0
2015-May-17 15:27N 44°23' E 008°46'0 0.0
2015-May-17 14:34N 44°23' E 008°46'0 0.0
2015-May-17 13:33N 44°23' E 008°46'0 0.0
2015-May-17 12:33N 44°23' E 008°46'0 0.0
2015-May-17 11:33N 44°23' E 008°46'0 0.0
2015-May-17 10:33N 44°23' E 008°46'0 0.4
2015-May-17 09:33N 44°23' E 008°46'8 7.7
2015-May-17 08:33N 44°15' E 008°49'1716.8
2015-May-17 07:33N 44°02' E 009°03'1716.9
2015-May-17 06:34N 43°47' E 009°14'1616.4
2015-May-17 05:34N 43°32' E 009°23'1616.3
2015-May-17 04:33N 43°17' E 009°32'1616.1
2015-May-17 03:33N 43°01' E 009°38'1616.0
2015-May-17 02:33N 42°46' E 009°43'22815.8
2015-May-16 12:09N 38°58' E 009°31'1017.2
2015-May-16 11:33N 39°03' E 009°19'1414.0
2015-May-16 10:33N 39°12' E 009°05'1 1.3
2015-May-16 09:31N 39°13' E 009°04'0 0.0
2015-May-16 08:31N 39°13' E 009°04'0 0.0
2015-May-16 07:31N 39°13' E 009°04'0 0.0
2015-May-16 06:31N 39°13' E 009°04'0 0.0
2015-May-16 05:31N 39°13' E 009°04'0 0.0
2015-May-16 04:31N 39°13' E 009°04'0 0.0
2015-May-16 03:31N 39°13' E 009°04'0 0.0
2015-May-16 02:31N 39°13' E 009°04'0 0.0
2015-May-16 01:31N 39°13' E 009°04'0 0.0
2015-May-16 00:31N 39°13' E 009°04'0 0.0
2015-May-15 23:31N 39°13' E 009°04'0 0.0
2015-May-15 22:31N 39°13' E 009°04'0 0.0
2015-May-15 21:31N 39°13' E 009°04'0 0.0
2015-May-15 20:31N 39°13' E 009°04'0 0.0
2015-May-15 19:31N 39°13' E 009°04'0 0.5
2015-May-15 18:34N 39°13' E 009°04'8 8.0
2015-May-15 17:33N 39°06' E 009°10'1514.7
2015-May-15 16:33N 38°59' E 009°26'5015.6
2015-May-15 13:19N 38°32' E 010°20'1216.1
2015-May-15 12:33N 38°25' E 010°33'1616.3
2015-May-15 11:33N 38°16' E 010°51'1717.1
2015-May-15 10:33N 38°07' E 011°09'1717.4
2015-May-15 09:33N 37°58' E 011°28'1818.2
2015-May-15 08:33N 37°48' E 011°47'1818.2
2015-May-15 07:33N 37°38' E 012°07'1717.4
2015-May-15 06:34N 37°29' E 012°25'5317.6
2015-May-15 03:33N 37°00' E 013°21'1717.2
2015-May-15 02:34N 36°51' E 013°39'1717.2
2015-May-15 01:34N 36°42' E 013°57'1717.0
2015-May-15 00:34N 36°33' E 014°15'1716.9
2015-May-14 23:34N 36°27' E 014°35'1717.0
2015-May-14 22:34N 36°24' E 014°55'1717.1
2015-May-14 21:33N 36°24' E 015°17'24516.4
2015-May-14 06:33N 36°21' E 020°22'1716.8
2015-May-14 05:34N 36°20' E 020°42'17714.4
2015-May-13 17:15N 37°30' E 024°06'1617.2
2015-May-13 16:19N 37°43' E 024°17'1317.5
2015-May-13 15:33N 37°52' E 024°31'  

Dump ship's entire track history